Time;durP1;ratioP1;P1;durP2;ratioP2;P2;SDS_P1;SDS_P2;PMS_P1;PMS_P2;Temp;Humidity;BMP_temperature;BMP_pressure;BME280_temperature;BME280_humidity;BME280_pressure;Samples;Min_cycle;Max_cycle;Signal;HPM_P1;HPM_P2
2022/03/23 00:01:31;;;;;;;55.97;27.05;;;;;;;4.67;48.56;103173.22;5042501;28;20029;-78
2022/03/23 00:03:56;;;;;;;51.92;26.77;;;;;;;4.62;48.33;103170.53;5019438;28;20495;-80
2022/03/23 00:06:22;;;;;;;47.20;25.15;;;;;;;4.60;48.85;103166.16;5038073;28;20037;-78
2022/03/23 00:08:49;;;;;;;51.67;27.10;;;;;;;4.53;48.77;103177.22;5035184;28;20037;-78
2022/03/23 00:11:15;;;;;;;56.05;25.70;;;;;;;4.47;49.16;103170.19;5038888;28;20565;-78
2022/03/23 00:13:40;;;;;;;50.53;25.67;;;;;;;4.44;49.07;103175.31;5018539;28;20045;-78
2022/03/23 00:16:06;;;;;;;56.40;27.50;;;;;;;4.48;48.86;103171.06;5043529;28;20116;-78
2022/03/23 00:18:32;;;;;;;53.58;27.45;;;;;;;4.51;48.78;103173.72;4997368;28;20049;-77
2022/03/23 00:20:58;;;;;;;51.72;27.23;;;;;;;4.43;48.75;103179.63;5004462;28;20498;-77
2022/03/23 00:23:24;;;;;;;54.80;26.63;;;;;;;4.35;48.76;103170.78;5028678;28;20545;-76
2022/03/23 00:25:49;;;;;;;53.85;26.52;;;;;;;4.31;48.98;103179.31;5038796;28;20040;-79
2022/03/23 00:28:14;;;;;;;57.55;25.67;;;;;;;4.28;48.99;103174.06;5040967;28;20404;-79
2022/03/23 00:30:40;;;;;;;53.58;25.35;;;;;;;4.26;49.05;103167.13;5039366;28;20051;-78
2022/03/23 00:33:06;;;;;;;51.10;26.33;;;;;;;4.25;48.97;103163.63;5024021;28;20069;-78
2022/03/23 00:35:32;;;;;;;55.63;26.20;;;;;;;4.24;49.14;103171.38;5024294;28;20052;-78
2022/03/23 00:37:59;;;;;;;47.15;24.73;;;;;;;4.20;49.15;103167.84;5039145;28;20171;-78
2022/03/23 00:40:28;;;;;;;44.47;24.15;;;;;;;4.24;48.85;103168.78;5042015;28;20130;-77
2022/03/23 00:43:01;;;;;;;52.55;24.30;;;;;;;4.22;48.96;103173.94;5038592;28;20098;-79
2022/03/23 00:45:30;;;;;;;46.70;23.67;;;;;;;4.18;49.18;103169.50;5041630;28;20037;-79
2022/03/23 00:47:57;;;;;;;44.28;21.90;;;;;;;4.17;49.10;103160.00;5043509;28;20033;-77
2022/03/23 00:50:24;;;;;;;51.38;24.50;;;;;;;4.10;49.10;103169.34;5007941;28;20033;-78
2022/03/23 00:52:50;;;;;;;47.85;23.25;;;;;;;4.11;49.07;103165.03;5042905;28;20044;-80
2022/03/23 00:55:16;;;;;;;48.75;22.92;;;;;;;4.02;49.07;103166.56;5041041;28;20457;-78
2022/03/23 00:57:42;;;;;;;42.60;22.45;;;;;;;3.96;49.12;103169.03;5005279;28;20097;-78
2022/03/23 01:00:12;;;;;;;46.85;22.30;;;;;;;3.92;49.31;103174.94;5042189;28;20562;-78
2022/03/23 01:02:41;;;;;;;47.90;23.48;;;;;;;3.90;49.66;103170.59;5021477;28;20072;-78
2022/03/23 01:05:08;;;;;;;48.47;23.80;;;;;;;3.87;49.63;103170.47;5040517;28;20033;-77
2022/03/23 01:07:35;;;;;;;44.38;23.55;;;;;;;3.84;49.48;103166.13;5043639;28;20036;-78
2022/03/23 01:10:01;;;;;;;49.92;23.08;;;;;;;3.81;49.52;103160.88;5023769;28;20410;-77
2022/03/23 01:12:27;;;;;;;48.13;23.13;;;;;;;3.79;49.77;103162.53;5023454;28;20041;-77
2022/03/23 01:14:53;;;;;;;41.47;22.05;;;;;;;3.76;49.56;103165.94;5040345;28;20482;-77
2022/03/23 01:17:18;;;;;;;46.05;22.55;;;;;;;3.75;49.57;103163.31;5039954;28;20118;-79
2022/03/23 01:19:44;;;;;;;49.92;22.70;;;;;;;3.68;49.42;103167.44;5038312;28;20036;-78
2022/03/23 01:22:10;;;;;;;43.40;21.65;;;;;;;3.67;49.59;103159.63;5040638;28;20044;-78
2022/03/23 01:24:35;;;;;;;42.88;21.23;;;;;;;3.68;49.55;103164.84;5023542;28;20048;-77
2022/03/23 01:27:02;;;;;;;49.88;23.25;;;;;;;3.56;49.57;103161.94;5019012;28;20147;-80
2022/03/23 01:29:30;;;;;;;46.75;22.30;;;;;;;3.59;49.76;103155.16;5002441;28;20041;-77
2022/03/23 01:31:56;;;;;;;42.90;22.35;;;;;;;3.55;49.56;103162.78;5023858;28;20037;-78
2022/03/23 01:34:21;;;;;;;51.92;24.00;;;;;;;3.57;49.71;103158.53;5021652;28;20411;-78
2022/03/23 01:36:49;;;;;;;40.97;21.88;;;;;;;3.56;49.69;103155.09;5042643;28;20036;-79
2022/03/23 01:39:14;;;;;;;45.22;22.50;;;;;;;3.48;49.79;103159.16;5027995;28;20022;-79
2022/03/23 01:41:41;;;;;;;50.05;24.27;;;;;;;3.47;49.47;103160.03;5042603;28;20044;-75
2022/03/23 01:44:14;;;;;;;49.15;23.02;;;;;;;3.48;49.53;103155.72;5041967;28;20037;-80
2022/03/23 01:47:12;;;;;;;39.20;21.23;;;;;;;3.45;49.73;103153.94;5037691;28;20121;-80
2022/03/23 01:49:41;;;;;;;44.53;20.95;;;;;;;3.42;49.64;103148.66;5020092;28;20087;-79
2022/03/23 01:52:09;;;;;;;41.90;22.05;;;;;;;3.38;49.61;103154.56;5020225;28;20119;-78
2022/03/23 01:54:36;;;;;;;39.05;20.55;;;;;;;3.36;49.63;103156.28;5041386;28;20032;-79
2022/03/23 01:57:04;;;;;;;44.00;23.08;;;;;;;3.33;49.72;103151.00;5043778;28;20041;-78
2022/03/23 01:59:32;;;;;;;52.33;25.23;;;;;;;3.27;49.76;103150.78;5022650;28;20029;-80
2022/03/23 02:01:58;;;;;;;44.55;23.25;;;;;;;3.27;49.86;103150.78;5002882;28;20021;-79
2022/03/23 02:04:24;;;;;;;46.20;23.15;;;;;;;3.33;49.71;103145.84;5039911;28;20100;-78
2022/03/23 02:06:50;;;;;;;42.13;21.88;;;;;;;3.27;49.47;103140.47;5040079;28;20075;-78
2022/03/23 02:09:19;;;;;;;42.22;21.40;;;;;;;3.27;49.59;103137.88;5037797;28;20610;-79
2022/03/23 02:11:46;;;;;;;45.00;20.85;;;;;;;3.26;49.70;103143.88;5038111;28;20043;-79
2022/03/23 02:14:12;;;;;;;41.50;20.15;;;;;;;3.25;49.44;103134.38;5022369;28;20898;-80
2022/03/23 02:16:42;;;;;;;42.60;21.42;;;;;;;3.18;49.77;103143.69;5039728;28;20466;-78
2022/03/23 02:19:08;;;;;;;46.42;22.27;;;;;;;3.14;49.75;103139.28;5039212;28;20302;-78
2022/03/23 02:21:34;;;;;;;45.17;23.17;;;;;;;3.08;50.01;103139.97;5043576;28;20036;-80
2022/03/23 02:24:03;;;;;;;50.38;22.42;;;;;;;3.04;49.99;103139.84;5019966;28;20118;-80
2022/03/23 02:26:29;;;;;;;53.63;24.45;;;;;;;2.98;50.26;103137.97;5040211;28;20037;-77
2022/03/23 02:28:55;;;;;;;52.78;22.48;;;;;;;3.03;49.98;103136.38;5022028;28;20124;-79
2022/03/23 02:31:20;;;;;;;48.17;23.38;;;;;;;2.96;50.16;103137.06;5039651;28;20095;-78
2022/03/23 02:33:46;;;;;;;45.53;22.17;;;;;;;2.99;50.28;103134.53;5036958;28;20063;-79
2022/03/23 02:36:11;;;;;;;48.58;21.02;;;;;;;3.04;50.11;103138.13;5039561;28;20052;-78
2022/03/23 02:38:37;;;;;;;48.25;23.08;;;;;;;3.01;49.91;103134.59;5037859;28;20312;-75
2022/03/23 02:41:03;;;;;;;44.15;22.90;;;;;;;2.95;50.20;103128.41;5017868;28;20025;-77
2022/03/23 02:43:29;;;;;;;41.20;21.52;;;;;;;2.91;50.06;103130.88;5038565;28;20040;-80
2022/03/23 02:45:54;;;;;;;49.17;24.33;;;;;;;2.82;50.12;103130.59;5034365;28;20039;-80
2022/03/23 02:48:20;;;;;;;41.70;21.83;;;;;;;2.88;50.19;103131.66;5038556;28;20418;-78
2022/03/23 02:50:46;;;;;;;39.30;20.38;;;;;;;2.85;49.73;103131.59;5040853;28;20075;-80
2022/03/23 03:01:54;;;;;;;45.85;22.15;;;;;;;2.77;50.19;103121.00;5025074;28;20037;-78
2022/03/23 03:04:20;;;;;;;45.50;22.33;;;;;;;2.68;50.13;103125.91;5022082;28;20056;-78
2022/03/23 03:06:46;;;;;;;43.65;21.50;;;;;;;2.74;50.36;103132.97;5041108;28;20041;-79
2022/03/23 03:09:13;;;;;;;43.05;21.02;;;;;;;2.76;50.23;103139.94;5021314;28;20071;-79
2022/03/23 03:11:38;;;;;;;41.50;20.55;;;;;;;2.75;50.20;103135.59;5021367;28;20509;-78
2022/03/23 03:14:04;;;;;;;39.50;19.38;;;;;;;2.81;50.15;103140.06;5037132;28;20040;-79
2022/03/23 03:16:30;;;;;;;49.58;21.55;;;;;;;2.73;50.15;103137.28;5039129;28;20048;-78
2022/03/23 03:18:55;;;;;;;46.03;21.10;;;;;;;2.76;50.27;103137.34;5021068;28;20114;-80
2022/03/23 03:21:21;;;;;;;44.10;21.75;;;;;;;2.73;49.97;103132.13;5044696;28;20375;-77
2022/03/23 03:23:47;;;;;;;43.63;22.15;;;;;;;2.70;50.09;103137.16;5039202;28;20037;-78
2022/03/23 03:26:16;;;;;;;50.15;23.92;;;;;;;2.61;50.27;103142.06;5027743;28;20028;-80
2022/03/23 03:28:42;;;;;;;50.47;23.98;;;;;;;2.49;50.84;103142.59;5037756;28;20045;-79
2022/03/23 03:31:10;;;;;;;52.92;25.85;;;;;;;2.47;51.30;103144.25;5014363;28;20647;-78
2022/03/23 03:33:36;;;;;;;49.47;25.25;;;;;;;2.55;51.13;103137.63;5038434;28;20045;-78
2022/03/23 03:36:04;;;;;;;49.85;23.80;;;;;;;2.52;51.14;103137.50;5018597;28;20051;-79
2022/03/23 03:38:30;;;;;;;50.92;24.88;;;;;;;2.51;51.64;103134.88;5016565;28;20036;-79
2022/03/23 03:40:57;;;;;;;48.80;23.90;;;;;;;2.53;51.49;103143.53;5037811;28;20468;-80
2022/03/23 03:43:24;;;;;;;48.47;24.27;;;;;;;2.54;51.34;103141.00;5037866;28;20040;-78
2022/03/23 03:45:50;;;;;;;47.33;21.58;;;;;;;2.55;51.00;103142.78;5036618;28;20434;-80
2022/03/23 03:48:17;;;;;;;44.60;22.75;;;;;;;2.51;50.92;103140.03;5038273;28;20430;-80
2022/03/23 03:50:43;;;;;;;42.05;20.30;;;;;;;2.54;50.99;103141.00;5040634;28;20155;-78
2022/03/23 03:53:09;;;;;;;44.08;20.65;;;;;;;2.58;50.49;103139.41;5022527;28;20044;-79
2022/03/23 03:55:39;;;;;;;42.75;20.83;;;;;;;2.52;50.54;103145.25;5046975;28;20032;-79
2022/03/23 03:58:06;;;;;;;40.35;19.00;;;;;;;2.50;50.45;103144.31;5039879;28;20040;-80
2022/03/23 04:00:35;;;;;;;41.50;20.08;;;;;;;2.48;50.73;103145.13;5039711;28;20045;-77
2022/03/23 04:03:02;;;;;;;44.92;20.63;;;;;;;2.44;50.49;103151.88;5040713;28;20044;-79
2022/03/23 04:05:28;;;;;;;41.80;20.88;;;;;;;2.41;50.56;103149.22;5029227;28;20025;-81
2022/03/23 04:07:57;;;;;;;44.45;19.90;;;;;;;2.42;50.68;103144.91;5039982;28;20040;-78
2022/03/23 04:10:24;;;;;;;41.15;18.73;;;;;;;2.39;50.64;103145.72;5025954;28;20029;-79
2022/03/23 04:12:49;;;;;;;35.65;17.52;;;;;;;2.35;50.35;103149.03;5041358;28;20037;-80
2022/03/23 04:15:15;;;;;;;42.28;19.05;;;;;;;2.35;50.48;103143.84;5026504;28;20406;-81
2022/03/23 04:17:42;;;;;;;37.80;19.05;;;;;;;2.31;50.38;103150.66;5013139;28;20170;-79
2022/03/23 04:20:11;;;;;;;32.17;17.25;;;;;;;2.30;50.78;103148.88;5043203;28;20032;-78
2022/03/23 04:22:38;;;;;;;32.72;16.60;;;;;;;2.29;50.53;103144.56;5024254;28;20072;-80
2022/03/23 04:25:09;;;;;;;38.40;19.48;;;;;;;2.21;50.31;103151.19;5038445;28;20037;-81
2022/03/23 04:27:43;;;;;;;33.17;16.27;;;;;;;2.30;50.29;103146.28;5041610;28;20044;-78
2022/03/23 04:30:09;;;;;;;32.15;16.50;;;;;;;2.31;50.24;103147.16;5041008;28;20048;-78
2022/03/23 04:32:35;;;;;;;36.75;17.13;;;;;;;2.26;50.13;103143.56;5017507;28;20818;-79
2022/03/23 04:35:00;;;;;;;42.05;18.95;;;;;;;2.21;50.37;103151.19;5028553;28;20029;-78
2022/03/23 04:37:26;;;;;;;33.05;16.08;;;;;;;2.21;50.21;103151.19;5044478;28;20590;-78
2022/03/23 04:39:51;;;;;;;35.15;16.15;;;;;;;2.20;50.39;103145.97;5020083;28;20364;-79
2022/03/23 04:42:17;;;;;;;40.03;19.30;;;;;;;2.16;50.19;103152.75;5045676;28;20045;-78
2022/03/23 04:44:42;;;;;;;32.67;16.38;;;;;;;2.12;50.39;103149.19;5044749;28;20397;-78
2022/03/23 04:47:08;;;;;;;33.53;17.65;;;;;;;2.09;50.14;103150.81;5038565;28;20041;-79
2022/03/23 04:49:33;;;;;;;32.53;17.08;;;;;;;2.07;50.31;103152.47;5044702;28;20040;-79
2022/03/23 04:51:59;;;;;;;32.22;16.88;;;;;;;2.06;50.32;103151.56;5039755;28;20338;-78
2022/03/23 04:54:25;;;;;;;29.88;16.83;;;;;;;2.09;50.19;103155.97;5024175;28;20522;-80
2022/03/23 04:56:50;;;;;;;32.90;16.73;;;;;;;2.07;50.29;103157.63;5042047;28;20514;-80
2022/03/23 04:59:16;;;;;;;28.02;15.35;;;;;;;2.10;50.25;103152.53;5040578;28;20368;-79
2022/03/23 05:01:41;;;;;;;34.30;17.08;;;;;;;2.06;50.27;103156.72;5042635;28;20493;-79
2022/03/23 05:04:07;;;;;;;31.45;16.92;;;;;;;2.05;50.25;103159.25;4996422;28;20464;-81
2022/03/23 05:06:32;;;;;;;34.90;16.77;;;;;;;2.02;50.33;103159.16;5023431;28;20052;-77
2022/03/23 05:08:58;;;;;;;35.90;16.88;;;;;;;2.01;50.40;103162.56;5038297;28;20182;-81
2022/03/23 05:11:23;;;;;;;34.50;15.73;;;;;;;2.03;50.18;103155.75;5045934;28;20029;-79
2022/03/23 05:13:49;;;;;;;34.70;16.98;;;;;;;2.06;50.18;103155.84;5018184;28;20122;-79
2022/03/23 05:16:18;;;;;;;34.08;17.30;;;;;;;2.05;50.50;103159.25;5045208;28;20406;-78
2022/03/23 05:18:44;;;;;;;32.65;16.63;;;;;;;2.07;50.11;103162.78;5038846;28;20040;-81
2022/03/23 05:21:09;;;;;;;30.40;15.25;;;;;;;2.05;50.25;103164.44;5041156;28;20032;-80
2022/03/23 05:23:35;;;;;;;37.42;17.40;;;;;;;2.09;50.49;103158.53;5022370;28;20403;-78
2022/03/23 05:26:00;;;;;;;33.53;16.20;;;;;;;2.10;50.26;103161.16;5042158;28;20040;-82
2022/03/23 05:28:26;;;;;;;30.52;16.40;;;;;;;2.13;50.17;103166.44;5043794;28;20086;-83
2022/03/23 05:30:52;;;;;;;26.83;15.57;;;;;;;2.20;50.23;103164.91;5038426;28;20052;-79
2022/03/23 05:33:17;;;;;;;32.10;15.60;;;;;;;2.32;49.96;103164.41;5040435;28;20479;-77
2022/03/23 05:35:43;;;;;;;43.35;17.77;;;;;;;2.35;49.63;103165.41;5040205;28;20056;-80
2022/03/23 05:38:08;;;;;;;34.67;16.50;;;;;;;2.41;49.85;103164.69;5040343;28;20468;-78
2022/03/23 05:40:34;;;;;;;34.80;16.33;;;;;;;2.54;49.70;103165.97;5038696;28;20032;-78
2022/03/23 05:43:00;;;;;;;37.58;17.00;;;;;;;2.61;49.53;103167.88;5042752;28;20065;-78
2022/03/23 05:45:25;;;;;;;34.38;17.10;;;;;;;2.67;49.70;103162.91;5012756;28;20067;-79
2022/03/23 05:47:53;;;;;;;28.05;14.70;;;;;;;2.79;49.87;103169.28;5040493;28;20044;-79
2022/03/23 05:50:19;;;;;;;30.20;14.90;;;;;;;2.93;49.26;103170.53;5039871;28;20037;-78
2022/03/23 05:52:45;;;;;;;31.67;17.25;;;;;;;2.96;49.10;103174.09;5036050;28;20521;-78
2022/03/23 05:55:11;;;;;;;32.30;15.80;;;;;;;3.07;49.23;103174.41;5040409;28;20043;-78
2022/03/23 05:57:37;;;;;;;35.67;16.90;;;;;;;3.15;48.79;103178.06;5037413;28;20158;-79
2022/03/23 06:00:07;;;;;;;32.80;17.15;;;;;;;3.28;48.86;103179.28;5022898;28;20037;-79
2022/03/23 06:02:37;;;;;;;31.95;17.40;;;;;;;3.44;47.95;103184.91;5020661;28;20321;-79
2022/03/23 06:05:03;;;;;;;31.98;17.92;;;;;;;3.57;47.84;103180.09;5019578;28;20451;-75
2022/03/23 06:07:28;;;;;;;34.22;16.92;;;;;;;3.74;47.82;103183.13;5040803;28;20037;-79
2022/03/23 06:09:54;;;;;;;34.45;18.13;;;;;;;3.92;47.51;103182.72;5037792;28;20080;-79
2022/03/23 06:12:21;;;;;;;34.85;17.15;;;;;;;4.13;47.23;103195.28;5020065;28;20048;-81
2022/03/23 06:14:47;;;;;;;34.47;16.83;;;;;;;4.52;47.24;103178.03;5035657;28;20029;-80
2022/03/23 06:17:12;;;;;;;25.92;15.65;;;;;;;5.87;44.57;103185.91;5038432;28;20074;-80
2022/03/23 06:19:38;;;;;;;32.75;17.02;;;;;;;7.34;41.99;103184.47;5038829;28;20047;-78
2022/03/23 06:22:05;;;;;;;33.35;16.45;;;;;;;8.61;38.21;103183.78;5038989;28;20033;-79
2022/03/23 06:24:31;;;;;;;30.10;16.08;;;;;;;9.80;37.89;103183.25;5037664;28;20123;-75
2022/03/23 06:26:56;;;;;;;25.88;15.40;;;;;;;10.81;34.72;103187.41;5010813;28;20264;-78
2022/03/23 06:29:22;;;;;;;33.22;16.02;;;;;;;11.69;34.97;103187.78;5026059;28;20122;-80
2022/03/23 06:31:47;;;;;;;29.05;15.25;;;;;;;12.41;32.67;103188.91;5037782;28;20032;-80
2022/03/23 06:34:13;;;;;;;29.73;14.82;;;;;;;13.17;30.70;103194.09;5023767;28;20040;-78
2022/03/23 06:36:38;;;;;;;30.75;15.88;;;;;;;13.81;29.78;103187.88;5036659;28;20033;-80
2022/03/23 06:39:04;;;;;;;27.75;15.80;;;;;;;14.33;28.60;103186.94;5021759;28;20064;-78
2022/03/23 06:41:30;;;;;;;24.05;14.23;;;;;;;14.90;27.29;103193.72;5042519;28;20432;-79
2022/03/23 06:43:56;;;;;;;26.65;14.73;;;;;;;15.01;25.91;103189.97;5005542;28;20044;-79
2022/03/23 06:46:22;;;;;;;30.50;16.75;;;;;;;15.57;25.69;103183.41;5039101;28;20033;-77
2022/03/23 06:48:47;;;;;;;31.55;15.57;;;;;;;15.40;23.08;103192.63;5036955;28;20126;-80
2022/03/23 06:51:14;;;;;;;27.25;15.40;;;;;;;15.78;22.51;103189.91;5043618;28;20037;-79
2022/03/23 06:53:40;;;;;;;28.73;14.90;;;;;;;15.86;22.44;103197.63;5037397;28;20041;-80
2022/03/23 06:56:05;;;;;;;27.23;15.20;;;;;;;15.98;20.99;103197.31;5049666;28;20383;-79
2022/03/23 06:58:31;;;;;;;20.33;13.95;;;;;;;16.20;21.07;103200.28;5018932;28;20036;-82
2022/03/23 07:00:57;;;;;;;22.73;13.48;;;;;;;15.86;20.70;103199.38;5036795;28;20075;-80
2022/03/23 07:03:25;;;;;;;25.15;15.25;;;;;;;16.60;19.61;103195.66;5037794;28;20091;-78
2022/03/23 07:05:51;;;;;;;22.77;14.15;;;;;;;17.10;19.70;103200.38;5040367;28;20044;-80
2022/03/23 07:11:00;;;;;;;27.80;15.80;;;;;;;17.63;19.62;103203.09;5043643;28;20037;-79
2022/03/23 07:13:27;;;;;;;24.27;14.15;;;;;;;17.57;18.74;103205.94;5037433;28;20033;-81
2022/03/23 07:15:53;;;;;;;23.65;15.18;;;;;;;18.19;18.77;103210.03;5043985;28;20504;-76
2022/03/23 07:18:18;;;;;;;18.48;13.55;;;;;;;18.22;17.74;103207.28;5001639;28;20488;-80
2022/03/23 07:20:44;;;;;;;23.65;15.35;;;;;;;18.46;18.56;103218.75;5036822;28;20024;-79
2022/03/23 07:23:09;;;;;;;22.30;13.35;;;;;;;18.12;18.28;103214.66;5037592;28;20048;-79
2022/03/23 07:25:35;;;;;;;23.73;14.07;;;;;;;18.41;17.91;103215.44;5037882;28;20372;-76
2022/03/23 07:28:02;;;;;;;26.77;15.05;;;;;;;18.81;17.86;103220.09;5037212;28;20518;-79
2022/03/23 07:30:29;;;;;;;23.80;15.07;;;;;;;19.68;17.60;103217.56;5061935;28;20025;-76
2022/03/23 07:32:54;;;;;;;27.63;14.10;;;;;;;20.57;16.19;103224.31;5044100;28;20251;-75
2022/03/23 07:35:21;;;;;;;20.42;13.55;;;;;;;21.28;15.43;103210.38;5044822;28;20159;-79
2022/03/23 07:37:46;;;;;;;24.30;14.05;;;;;;;20.79;15.22;103218.03;5021020;28;20048;-81
2022/03/23 07:40:12;;;;;;;23.50;14.55;;;;;;;20.10;15.94;103219.31;5038280;28;20037;-80
2022/03/23 07:42:38;;;;;;;18.42;14.07;;;;;;;20.59;16.08;103216.28;5036933;28;20048;-78
2022/03/23 07:45:05;;;;;;;19.73;13.48;;;;;;;20.92;15.74;103220.06;5036871;28;20039;-81
2022/03/23 07:47:31;;;;;;;18.55;13.68;;;;;;;20.69;16.02;103217.59;5037028;28;20115;-78
2022/03/23 07:49:57;;;;;;;16.42;13.57;;;;;;;20.70;15.95;103216.66;5019780;28;20041;-80
2022/03/23 07:52:22;;;;;;;18.83;13.30;;;;;;;19.98;15.97;103223.38;5037396;28;20391;-81
2022/03/23 07:54:48;;;;;;;20.17;13.52;;;;;;;19.61;16.54;103227.56;5034644;28;20036;-80
2022/03/23 07:57:13;;;;;;;21.50;13.30;;;;;;;19.64;16.72;103229.25;5037406;28;20041;-81
2022/03/23 07:59:39;;;;;;;24.02;14.05;;;;;;;20.06;16.75;103228.34;5035811;28;20032;-81
2022/03/23 08:02:05;;;;;;;18.63;14.20;;;;;;;20.64;16.59;103227.56;5038107;28;20033;-79
2022/03/23 08:04:32;;;;;;;19.33;14.95;;;;;;;20.45;16.93;103232.88;5039880;28;20040;-77
2022/03/23 08:06:59;;;;;;;24.38;14.98;;;;;;;19.55;17.85;103237.53;5023014;28;20441;-80
2022/03/23 08:09:25;;;;;;;20.13;13.95;;;;;;;19.98;17.61;103239.28;5022599;28;20067;-80
2022/03/23 08:11:51;;;;;;;22.00;14.98;;;;;;;20.76;17.47;103227.00;5038961;28;20498;-80
2022/03/23 08:14:16;;;;;;;19.45;13.77;;;;;;;21.43;16.64;103235.38;5039477;28;20394;-81
2022/03/23 08:16:42;;;;;;;20.27;13.50;;;;;;;21.29;16.52;103239.56;5041251;28;20734;-79
2022/03/23 08:19:08;;;;;;;25.95;15.52;;;;;;;20.51;17.62;103233.44;5017466;28;20068;-79
2022/03/23 08:21:34;;;;;;;19.55;13.45;;;;;;;20.57;17.33;103236.75;5037065;28;20059;-79
2022/03/23 08:24:00;;;;;;;19.27;12.50;;;;;;;20.53;16.66;103234.25;5019481;28;20390;-80
2022/03/23 08:26:25;;;;;;;20.98;13.30;;;;;;;20.83;16.69;103236.41;5020473;28;20075;-80
2022/03/23 08:28:52;;;;;;;24.10;13.23;;;;;;;21.06;16.06;103231.84;5018677;28;20040;-78
2022/03/23 08:31:17;;;;;;;23.98;13.73;;;;;;;21.53;16.11;103226.03;5037408;28;20033;-78
2022/03/23 08:33:43;;;;;;;21.90;13.35;;;;;;;21.94;15.98;103234.56;5035090;28;20047;-78
2022/03/23 08:36:09;;;;;;;23.02;14.90;;;;;;;21.85;15.93;103232.38;5020807;28;20083;-80
2022/03/23 08:38:35;;;;;;;19.65;12.98;;;;;;;22.35;15.74;103236.88;5036026;28;20570;-80
2022/03/23 08:41:01;;;;;;;20.10;13.73;;;;;;;22.17;15.75;103229.88;5024377;28;20542;-77
2022/03/23 08:43:33;;;;;;;19.38;12.63;;;;;;;21.93;15.42;103237.31;5039961;28;20044;-77
2022/03/23 08:46:02;;;;;;;21.83;13.43;;;;;;;21.64;14.69;103229.00;5035683;28;20044;-79
2022/03/23 08:48:28;;;;;;;17.42;11.82;;;;;;;22.00;13.69;103230.72;5039612;28;20040;-75
2022/03/23 08:50:53;;;;;;;16.92;12.93;;;;;;;21.28;14.35;103237.84;5035471;28;20029;-76
2022/03/23 08:53:19;;;;;;;20.80;12.27;;;;;;;21.30;13.93;103230.66;5034337;28;20044;-79
2022/03/23 08:55:45;;;;;;;16.90;12.98;;;;;;;21.19;13.67;103229.44;5025956;28;20033;-80
2022/03/23 08:58:11;;;;;;;16.15;11.98;;;;;;;20.84;14.41;103234.59;5027988;28;20111;-78
2022/03/23 09:00:40;;;;;;;15.32;11.98;;;;;;;20.64;14.38;103236.41;5019009;28;20596;-74
2022/03/23 09:03:06;;;;;;;15.93;12.15;;;;;;;19.65;14.64;103245.09;4985381;28;20625;-80
2022/03/23 09:05:31;;;;;;;21.95;12.35;;;;;;;18.98;15.45;103240.66;5029375;28;20659;-78
2022/03/23 09:07:57;;;;;;;20.13;12.82;;;;;;;18.08;15.90;103241.28;5016715;28;20484;-79
2022/03/23 09:10:23;;;;;;;21.63;13.50;;;;;;;17.47;16.50;103247.66;5039992;28;20032;-78
2022/03/23 09:12:48;;;;;;;16.83;12.25;;;;;;;17.77;16.93;103243.16;5040545;28;20506;-77
2022/03/23 09:15:16;;;;;;;17.83;12.25;;;;;;;17.68;16.59;103242.63;5040251;28;20068;-78
2022/03/23 09:17:43;;;;;;;17.50;12.32;;;;;;;18.09;16.30;103235.91;5017942;28;20044;-78
2022/03/23 09:20:11;;;;;;;23.77;12.07;;;;;;;18.15;16.35;103233.06;5039055;28;20033;-76
2022/03/23 09:22:37;;;;;;;19.58;11.85;;;;;;;18.01;16.86;103230.91;5038324;28;20036;-78
2022/03/23 09:25:12;;;;;;;18.05;12.23;;;;;;;18.22;17.51;103225.81;5023905;28;20036;-79
2022/03/23 09:27:43;;;;;;;19.40;11.85;;;;;;;18.34;17.04;103235.97;5021690;28;20045;-77
2022/03/23 09:30:11;;;;;;;22.50;12.25;;;;;;;18.22;17.02;103226.66;5020879;28;20037;-79
2022/03/23 09:32:38;;;;;;;19.15;11.98;;;;;;;18.23;16.52;103230.19;5042013;28;20066;-80
2022/03/23 09:35:05;;;;;;;17.75;12.52;;;;;;;17.90;16.25;103235.69;5036787;28;20041;-79
2022/03/23 09:37:48;;;;;;;16.65;10.82;;;;;;;18.09;16.03;103235.06;5012590;28;20052;-81
2022/03/23 09:40:28;;;;;;;22.95;12.10;;;;;;;17.76;16.26;103240.56;5043249;28;20448;-82
2022/03/23 09:43:02;;;;;;;17.67;11.10;;;;;;;17.99;15.77;103240.66;5035746;28;20064;-79
2022/03/23 09:48:00;;;;;;;14.90;11.55;;;;;;;18.20;15.58;103225.00;5066839;28;20134;-77
2022/03/23 09:50:29;;;;;;;16.10;10.93;;;;;;;18.17;16.25;103230.38;5026774;28;20568;-79
2022/03/23 09:52:55;;;;;;;16.10;11.55;;;;;;;18.30;16.50;103229.06;5043076;28;20041;-80
2022/03/23 09:55:20;;;;;;;18.50;11.98;;;;;;;18.57;16.54;103231.63;5019622;28;20039;-81
2022/03/23 09:57:46;;;;;;;17.63;10.82;;;;;;;18.81;15.19;103236.00;5036703;28;20040;-79
2022/03/23 10:00:13;;;;;;;13.40;10.10;;;;;;;18.50;14.60;103233.63;5023505;28;20030;-79
2022/03/23 10:02:39;;;;;;;18.00;11.25;;;;;;;18.36;14.78;103234.09;5030681;28;20539;-80
2022/03/23 10:05:45;;;;;;;16.25;10.55;;;;;;;18.11;14.79;103233.22;5037890;28;20032;-79
2022/03/23 10:08:23;;;;;;;12.75;9.45;;;;;;;17.95;14.74;103230.25;5016470;28;20414;-82
2022/03/23 10:11:36;;;;;;;20.13;10.55;;;;;;;17.78;14.83;103229.03;5034472;28;20075;-78
2022/03/23 10:14:54;;;;;;;14.93;10.55;;;;;;;18.30;14.40;103229.06;5038727;28;20581;-79
2022/03/23 10:17:48;;;;;;;15.15;11.05;;;;;;;18.66;14.34;103231.28;5022749;28;20048;-79
2022/03/23 10:20:14;;;;;;;13.43;10.07;;;;;;;18.57;14.23;103231.63;5037047;28;20091;-78
2022/03/23 10:22:49;;;;;;;17.08;11.23;;;;;;;17.96;14.27;103230.19;5019148;28;20044;-81
2022/03/23 10:25:15;;;;;;;12.95;10.07;;;;;;;17.50;14.28;103225.56;5023452;28;20122;-80
2022/03/23 10:27:42;;;;;;;12.80;9.73;;;;;;;17.62;14.12;103228.66;5036355;28;20041;-79
2022/03/23 10:30:09;;;;;;;14.82;10.60;;;;;;;17.95;15.25;103230.25;5022690;28;20752;-82
2022/03/23 10:32:41;;;;;;;16.27;10.43;;;;;;;17.59;14.75;103231.41;5043605;28;20044;-80
2022/03/23 10:35:15;;;;;;;17.80;11.27;;;;;;;17.74;14.80;103231.81;5020309;28;20262;-78
2022/03/23 10:37:41;;;;;;;19.20;11.00;;;;;;;18.14;15.21;103222.53;5031320;28;20454;-76
2022/03/23 10:40:13;;;;;;;16.20;10.05;;;;;;;18.73;14.22;103219.53;5022522;28;20060;-78
2022/03/23 10:42:44;;;;;;;14.25;10.30;;;;;;;18.63;14.25;103220.78;5018606;28;20045;-78
2022/03/23 10:45:10;;;;;;;12.98;9.57;;;;;;;18.30;13.43;103213.16;5000281;28;20071;-79
2022/03/23 10:47:38;;;;;;;13.90;10.50;;;;;;;18.34;14.76;103213.91;5004943;28;20045;-80
2022/03/23 10:50:24;;;;;;;12.23;10.60;;;;;;;18.79;13.97;103216.66;5041158;28;20029;-79
2022/03/23 10:53:01;;;;;;;16.60;10.55;;;;;;;19.08;13.90;103212.03;5012022;28;20264;-79
2022/03/23 10:55:35;;;;;;;21.00;10.48;;;;;;;18.33;13.57;103209.53;5037640;28;20036;-79
2022/03/23 10:58:00;;;;;;;14.40;11.82;;;;;;;18.57;13.58;103211.28;5019064;28;20742;-81
2022/03/23 11:00:30;;;;;;;18.98;12.07;;;;;;;18.78;14.11;103204.31;5039500;28;20029;-79
2022/03/23 11:02:57;;;;;;;18.92;12.27;;;;;;;19.41;13.90;103206.28;5005141;28;20219;-79
2022/03/23 11:05:35;;;;;;;17.27;11.75;;;;;;;19.43;13.16;103204.44;5013237;28;20157;-80
2022/03/23 11:08:13;;;;;;;17.80;11.40;;;;;;;18.99;12.93;103197.34;5036909;28;20431;-79
2022/03/23 11:16:13;;;;;;;15.00;11.48;;;;;;;18.62;13.85;103195.22;5042830;28;20443;-80
2022/03/23 11:18:39;;;;;;;16.17;10.73;;;;;;;19.07;12.92;103194.38;5036944;28;20581;-80
2022/03/23 11:21:05;;;;;;;17.95;11.63;;;;;;;19.11;13.06;103195.16;5019822;28;20429;-81
2022/03/23 11:23:35;;;;;;;18.95;11.30;;;;;;;19.44;13.05;103192.91;5040980;28;20108;-77
2022/03/23 11:26:04;;;;;;;14.80;10.73;;;;;;;19.53;12.36;103197.84;5002832;28;20033;-79
2022/03/23 11:28:50;;;;;;;17.23;11.55;;;;;;;19.41;12.99;103193.03;4990322;28;20037;-80
2022/03/23 11:31:19;;;;;;;17.33;10.85;;;;;;;19.49;13.10;103196.22;5033500;28;20061;-79
2022/03/23 11:33:49;;;;;;;16.58;9.75;;;;;;;19.61;13.47;103186.94;5036531;28;20059;-81
2022/03/23 11:36:17;;;;;;;18.03;11.10;;;;;;;19.46;13.12;103183.97;5004100;28;20110;-80